Time;durP1;ratioP1;P1;durP2;ratioP2;P2;SDS_P1;SDS_P2;PMS_P1;PMS_P2;Temp;Humidity;BMP_temperature;BMP_pressure;BME280_temperature;BME280_humidity;BME280_pressure;Samples;Min_cycle;Max_cycle;Signal;HPM_P1;HPM_P2
2021/08/06 00:01:40;;;;;;;12.07;9.65;;;16.00;99.90;;;;;;5148834;28;20044;-79
2021/08/06 00:04:07;;;;;;;11.70;9.50;;;16.00;99.90;;;;;;5147440;28;20395;-79
2021/08/06 00:06:34;;;;;;;12.52;9.48;;;15.90;99.90;;;;;;5147746;28;20040;-79
2021/08/06 00:09:01;;;;;;;12.23;9.15;;;15.90;99.90;;;;;;5130318;28;20043;-78
2021/08/06 00:11:30;;;;;;;10.52;9.43;;;15.90;99.90;;;;;;5113971;28;20088;-78
2021/08/06 00:13:57;;;;;;;10.38;9.27;;;15.90;99.90;;;;;;5147106;28;20040;-78
2021/08/06 00:16:25;;;;;;;14.23;9.73;;;15.90;99.90;;;;;;5130747;28;20476;-79
2021/08/06 00:18:52;;;;;;;12.95;9.60;;;15.90;99.90;;;;;;5147081;28;20085;-78
2021/08/06 00:21:18;;;;;;;10.52;9.45;;;15.80;99.90;;;;;;5148814;28;20471;-78
2021/08/06 00:23:46;;;;;;;11.60;9.70;;;15.80;99.90;;;;;;5147643;28;20043;-79
2021/08/06 00:26:13;;;;;;;10.82;9.52;;;15.80;99.90;;;;;;5147333;28;20035;-78
2021/08/06 00:28:41;;;;;;;11.98;9.88;;;15.80;99.90;;;;;;5113766;28;20490;-78
2021/08/06 00:31:09;;;;;;;16.70;9.98;;;15.80;99.90;;;;;;5146949;28;20044;-79
2021/08/06 00:33:36;;;;;;;12.43;9.55;;;15.70;99.90;;;;;;5147366;28;20032;-78
2021/08/06 00:36:04;;;;;;;11.82;10.13;;;15.70;99.90;;;;;;5147979;28;20160;-78
2021/08/06 00:38:31;;;;;;;14.38;10.02;;;15.70;99.90;;;;;;5147332;28;20403;-79
2021/08/06 00:40:57;;;;;;;12.32;10.25;;;15.70;99.90;;;;;;5129853;28;20036;-78
2021/08/06 00:43:25;;;;;;;10.80;9.70;;;15.70;99.90;;;;;;5147167;28;20043;-78
2021/08/06 00:45:52;;;;;;;11.65;10.05;;;15.60;99.90;;;;;;5146670;28;20040;-79
2021/08/06 00:48:19;;;;;;;12.70;9.40;;;15.60;99.90;;;;;;5148251;28;20063;-78
2021/08/06 00:50:46;;;;;;;11.38;9.50;;;15.60;99.90;;;;;;5147130;28;20067;-79
2021/08/06 00:53:13;;;;;;;10.98;9.82;;;15.60;99.90;;;;;;5146625;28;20042;-79
2021/08/06 00:55:41;;;;;;;11.18;9.88;;;15.60;99.90;;;;;;5147239;28;20118;-78
2021/08/06 00:58:10;;;;;;;11.82;10.43;;;15.60;99.90;;;;;;5146606;28;20100;-78
2021/08/06 01:00:38;;;;;;;12.88;10.48;;;15.50;99.90;;;;;;5130287;28;20081;-79
2021/08/06 01:03:20;;;;;;;12.43;9.48;;;15.50;99.90;;;;;;5147730;28;20039;-78
2021/08/06 01:06:01;;;;;;;11.63;9.93;;;15.50;99.90;;;;;;5148874;28;20105;-78
2021/08/06 01:08:40;;;;;;;11.77;9.88;;;15.50;99.90;;;;;;5151177;28;20039;-78
2021/08/06 01:11:08;;;;;;;14.95;10.00;;;15.50;99.90;;;;;;5150712;28;20039;-79
2021/08/06 01:13:44;;;;;;;12.95;9.70;;;15.40;99.90;;;;;;5151158;28;20480;-78
2021/08/06 01:16:13;;;;;;;11.88;10.68;;;15.40;99.90;;;;;;5150539;28;20032;-78
2021/08/06 01:18:56;;;;;;;11.95;9.63;;;15.40;99.90;;;;;;5152323;28;20035;-78
2021/08/06 01:21:25;;;;;;;11.80;9.88;;;15.40;99.90;;;;;;5151234;28;20479;-78
2021/08/06 01:23:57;;;;;;;10.73;9.00;;;15.30;99.90;;;;;;5151059;28;20040;-79
2021/08/06 01:26:24;;;;;;;14.32;9.80;;;15.30;99.90;;;;;;5134102;28;20476;-78
2021/08/06 01:28:51;;;;;;;11.93;10.02;;;15.30;99.90;;;;;;5133931;28;20092;-79
2021/08/06 01:31:28;;;;;;;14.10;9.23;;;15.30;99.90;;;;;;5151507;28;20539;-78
2021/08/06 01:33:56;;;;;;;12.77;10.02;;;15.30;99.90;;;;;;5150806;28;20036;-78
2021/08/06 01:36:24;;;;;;;14.13;9.88;;;15.20;99.90;;;;;;5133877;28;20395;-79
2021/08/06 01:38:51;;;;;;;11.60;8.95;;;15.20;99.90;;;;;;5133649;28;20047;-78
2021/08/06 01:41:32;;;;;;;14.98;10.15;;;15.20;99.90;;;;;;5151319;28;20553;-78
2021/08/06 01:44:15;;;;;;;12.95;10.05;;;15.20;99.90;;;;;;5150171;28;20027;-78
2021/08/06 01:46:48;;;;;;;11.73;9.82;;;15.20;99.90;;;;;;5151932;27;20042;-78
2021/08/06 01:49:23;;;;;;;15.05;9.80;;;15.20;99.90;;;;;;5151094;28;20036;-78
2021/08/06 01:51:54;;;;;;;11.40;9.55;;;15.20;99.90;;;;;;5150608;28;20031;-79
2021/08/06 01:54:22;;;;;;;12.68;9.85;;;15.10;99.90;;;;;;5149843;28;20035;-78
2021/08/06 01:56:50;;;;;;;13.20;9.80;;;15.10;99.90;;;;;;5133381;28;20040;-78
2021/08/06 01:59:17;;;;;;;12.43;9.82;;;15.10;99.90;;;;;;5149868;28;20127;-78
2021/08/06 02:01:44;;;;;;;10.93;9.73;;;15.10;99.90;;;;;;5151303;28;20054;-78
2021/08/06 02:04:11;;;;;;;13.00;9.63;;;15.10;99.90;;;;;;5132768;28;20032;-78
2021/08/06 02:06:38;;;;;;;12.57;9.57;;;15.10;99.90;;;;;;5151209;28;20035;-78
2021/08/06 02:09:05;;;;;;;14.45;9.88;;;15.00;99.90;;;;;;5132736;28;20048;-78
2021/08/06 02:11:32;;;;;;;12.60;10.18;;;15.00;99.90;;;;;;5116134;28;20399;-78
2021/08/06 02:13:58;;;;;;;14.15;11.00;;;14.90;99.90;;;;;;5133068;28;20433;-78
2021/08/06 02:16:25;;;;;;;11.82;9.68;;;15.00;99.90;;;;;;5149576;28;20111;-79
2021/08/06 02:18:56;;;;;;;14.55;10.20;;;14.90;99.90;;;;;;5131719;28;20043;-78
2021/08/06 02:21:31;;;;;;;12.13;10.43;;;14.90;99.90;;;;;;5150959;28;20377;-78
2021/08/06 02:24:04;;;;;;;17.27;10.52;;;14.90;99.90;;;;;;5149960;28;20043;-78
2021/08/06 02:26:33;;;;;;;13.82;10.13;;;14.90;99.90;;;;;;5149751;28;20040;-78
2021/08/06 02:29:07;;;;;;;11.70;9.88;;;14.90;99.90;;;;;;5150942;28;20043;-78
2021/08/06 02:31:35;;;;;;;14.05;10.52;;;14.80;99.90;;;;;;5149720;28;20399;-78
2021/08/06 02:34:02;;;;;;;14.55;10.73;;;14.80;99.90;;;;;;5132606;28;20035;-78
2021/08/06 02:36:30;;;;;;;13.85;10.10;;;14.80;99.90;;;;;;5149082;28;20471;-78
2021/08/06 02:38:59;;;;;;;12.00;9.80;;;14.80;99.90;;;;;;5149514;28;20035;-78
2021/08/06 02:41:27;;;;;;;13.05;10.00;;;14.80;99.90;;;;;;5149003;28;20032;-78
2021/08/06 02:43:55;;;;;;;13.73;9.77;;;14.80;99.90;;;;;;5132594;28;20036;-78
2021/08/06 02:46:21;;;;;;;15.43;10.63;;;14.80;99.90;;;;;;5148874;28;20527;-78
2021/08/06 02:48:48;;;;;;;13.80;10.40;;;14.80;99.90;;;;;;5132577;28;20114;-78
2021/08/06 02:51:15;;;;;;;14.07;10.60;;;14.80;99.90;;;;;;5148804;28;20040;-78
2021/08/06 02:53:42;;;;;;;13.85;10.77;;;14.80;99.90;;;;;;5132296;28;20067;-79
2021/08/06 02:56:08;;;;;;;15.50;10.27;;;14.80;99.90;;;;;;5114939;28;20042;-78
2021/08/06 02:58:35;;;;;;;14.02;10.48;;;14.80;99.90;;;;;;5115488;28;20032;-78
2021/08/06 03:01:02;;;;;;;12.27;9.75;;;14.80;99.90;;;;;;5131895;28;20046;-77
2021/08/06 03:03:29;;;;;;;12.77;10.07;;;14.80;99.90;;;;;;5148620;28;20046;-79
2021/08/06 03:05:56;;;;;;;13.85;10.93;;;14.80;99.90;;;;;;5150251;28;20032;-79
2021/08/06 03:08:22;;;;;;;14.45;11.27;;;14.80;99.90;;;;;;5131443;28;20036;-78
2021/08/06 03:10:49;;;;;;;12.70;10.38;;;14.80;99.90;;;;;;5149049;28;20035;-78
2021/08/06 03:13:16;;;;;;;14.93;10.35;;;14.80;99.90;;;;;;5131417;28;20402;-79
2021/08/06 03:15:43;;;;;;;14.95;11.00;;;14.80;99.90;;;;;;5115217;28;20404;-79
2021/08/06 03:18:11;;;;;;;15.73;10.20;;;14.80;99.90;;;;;;5148722;28;20118;-79
2021/08/06 03:20:40;;;;;;;13.15;10.60;;;14.80;99.90;;;;;;5149299;28;20113;-78
2021/08/06 03:23:07;;;;;;;14.30;10.68;;;14.90;99.90;;;;;;5148620;28;20484;-79
2021/08/06 03:25:34;;;;;;;12.18;10.85;;;14.90;99.90;;;;;;5148139;28;20039;-79
2021/08/06 03:28:01;;;;;;;16.65;11.48;;;14.90;99.90;;;;;;5131575;28;20111;-79
2021/08/06 03:30:28;;;;;;;14.27;10.80;;;14.80;99.90;;;;;;5113851;28;20050;-79
2021/08/06 03:32:55;;;;;;;15.30;10.88;;;14.90;99.90;;;;;;5114856;28;20078;-79
2021/08/06 03:35:21;;;;;;;13.38;10.80;;;14.90;99.90;;;;;;5148018;28;20115;-78
2021/08/06 03:37:49;;;;;;;15.65;11.75;;;14.90;99.90;;;;;;5148738;28;20048;-78
2021/08/06 03:40:16;;;;;;;15.90;11.13;;;14.90;99.90;;;;;;5147818;28;20038;-78
2021/08/06 03:42:43;;;;;;;14.70;11.30;;;14.90;99.90;;;;;;5148297;28;20118;-79
2021/08/06 03:45:10;;;;;;;14.90;11.85;;;14.90;99.90;;;;;;5148105;28;20035;-78
2021/08/06 03:47:37;;;;;;;14.90;11.57;;;14.90;99.90;;;;;;5113905;28;20043;-78
2021/08/06 03:50:06;;;;;;;14.30;11.45;;;14.90;99.90;;;;;;5149193;28;20028;-78
2021/08/06 03:52:33;;;;;;;13.73;10.88;;;14.90;99.90;;;;;;5147278;28;20032;-79
2021/08/06 03:55:00;;;;;;;13.75;11.02;;;15.00;99.90;;;;;;5130940;28;20038;-78
2021/08/06 03:57:27;;;;;;;13.88;11.25;;;14.80;99.90;;;;;;5130585;28;20545;-78
2021/08/06 03:59:54;;;;;;;14.45;11.07;;;14.90;99.90;;;;;;5130578;28;20038;-78
2021/08/06 04:02:20;;;;;;;13.60;11.40;;;14.90;99.90;;;;;;5130493;28;20036;-78
2021/08/06 04:04:47;;;;;;;14.65;11.13;;;14.90;99.90;;;;;;5130932;28;20047;-78
2021/08/06 04:07:14;;;;;;;15.23;10.45;;;14.90;99.90;;;;;;5131051;28;20043;-78
2021/08/06 04:09:41;;;;;;;16.88;11.25;;;14.90;99.90;;;;;;5147428;28;20492;-78
2021/08/06 04:12:08;;;;;;;15.93;11.65;;;14.90;99.90;;;;;;5131129;28;20059;-78
2021/08/06 04:14:34;;;;;;;15.35;10.93;;;15.00;99.90;;;;;;5147199;28;20050;-78
2021/08/06 04:17:01;;;;;;;14.27;11.88;;;15.00;99.90;;;;;;5114092;28;20404;-78
2021/08/06 04:19:31;;;;;;;16.42;11.82;;;15.00;99.90;;;;;;5148229;28;20036;-78
2021/08/06 04:21:58;;;;;;;15.35;11.10;;;15.00;99.90;;;;;;5130699;28;20522;-79
2021/08/06 04:24:27;;;;;;;14.68;11.70;;;15.00;99.90;;;;;;5145722;28;20047;-78
2021/08/06 04:26:54;;;;;;;14.95;11.13;;;15.00;99.90;;;;;;5112903;28;20043;-78
2021/08/06 04:29:21;;;;;;;14.13;11.68;;;15.00;99.90;;;;;;5124285;28;20037;-78
2021/08/06 04:31:48;;;;;;;17.20;11.18;;;15.00;99.90;;;;;;5128868;28;20069;-78
2021/08/06 04:34:18;;;;;;;13.98;11.35;;;15.10;99.90;;;;;;5126994;28;20040;-79
2021/08/06 04:36:45;;;;;;;12.90;11.25;;;15.10;99.90;;;;;;5143221;28;20046;-79
2021/08/06 04:39:13;;;;;;;14.77;11.13;;;15.10;99.90;;;;;;5109993;28;20545;-78
2021/08/06 04:41:41;;;;;;;16.88;10.30;;;15.20;99.90;;;;;;5086728;28;20046;-78
2021/08/06 04:44:08;;;;;;;19.60;11.10;;;15.20;99.90;;;;;;5119018;28;20111;-78
2021/08/06 04:46:35;;;;;;;12.93;10.88;;;15.20;99.90;;;;;;5103335;28;20110;-78
2021/08/06 04:49:02;;;;;;;15.05;10.80;;;15.20;99.90;;;;;;5134128;28;20039;-78
2021/08/06 04:51:29;;;;;;;13.40;11.18;;;15.30;99.90;;;;;;5101356;28;20028;-79
2021/08/06 04:53:56;;;;;;;13.10;10.98;;;15.30;99.90;;;;;;5123726;28;20040;-79
2021/08/06 04:56:24;;;;;;;17.85;11.73;;;15.30;99.90;;;;;;5128233;28;20036;-79
2021/08/06 04:58:51;;;;;;;15.68;10.85;;;15.30;99.90;;;;;;5126060;28;20088;-79
2021/08/06 05:01:18;;;;;;;13.68;11.85;;;15.30;99.90;;;;;;5136608;28;20047;-79
2021/08/06 05:03:45;;;;;;;13.63;11.07;;;15.30;99.90;;;;;;5136647;28;20070;-79
2021/08/06 05:06:13;;;;;;;14.45;11.50;;;15.30;99.90;;;;;;5137707;28;20466;-79
2021/08/06 05:08:43;;;;;;;20.73;11.98;;;15.30;99.90;;;;;;5134562;28;20044;-79
2021/08/06 05:11:10;;;;;;;15.43;12.10;;;15.30;99.90;;;;;;5137979;28;20038;-78
2021/08/06 05:13:36;;;;;;;12.82;10.57;;;15.30;99.90;;;;;;5115413;28;20028;-79
2021/08/06 05:16:04;;;;;;;15.75;12.15;;;15.30;99.90;;;;;;5101463;28;20035;-79
2021/08/06 05:18:31;;;;;;;15.95;11.55;;;15.40;99.90;;;;;;5108911;28;20111;-78
2021/08/06 05:20:57;;;;;;;14.48;11.00;;;15.40;99.90;;;;;;5123686;28;20043;-79
2021/08/06 05:23:24;;;;;;;14.32;10.88;;;15.40;99.90;;;;;;5121053;28;20038;-79
2021/08/06 05:25:51;;;;;;;17.08;11.73;;;15.50;99.90;;;;;;5138593;28;20040;-78
2021/08/06 05:28:18;;;;;;;16.15;11.68;;;15.50;99.90;;;;;;5126315;28;20043;-79
2021/08/06 05:30:44;;;;;;;17.02;11.88;;;15.50;99.90;;;;;;5142526;28;20114;-79
2021/08/06 05:33:11;;;;;;;19.27;12.20;;;15.50;99.90;;;;;;5130371;28;20051;-78
2021/08/06 05:35:39;;;;;;;17.45;10.98;;;15.50;99.90;;;;;;5108700;28;20464;-79
2021/08/06 05:38:06;;;;;;;16.10;11.13;;;15.50;99.90;;;;;;5124612;28;20036;-78
2021/08/06 05:40:35;;;;;;;15.48;11.57;;;15.50;99.90;;;;;;5098377;28;20063;-78
2021/08/06 05:43:02;;;;;;;16.67;10.77;;;15.60;99.90;;;;;;5122467;28;20106;-78
2021/08/06 05:45:29;;;;;;;13.88;11.35;;;15.70;99.90;;;;;;5138217;28;20123;-78
2021/08/06 05:47:56;;;;;;;14.75;11.30;;;15.70;99.90;;;;;;5117204;28;20111;-78
2021/08/06 05:50:25;;;;;;;16.10;11.02;;;15.80;99.90;;;;;;5137569;28;20116;-79
2021/08/06 05:52:53;;;;;;;15.38;11.13;;;15.80;99.90;;;;;;5134243;28;20086;-79
2021/08/06 05:55:20;;;;;;;15.27;10.68;;;15.90;99.90;;;;;;5146517;28;20513;-78
2021/08/06 05:57:48;;;;;;;14.73;10.15;;;15.90;99.90;;;;;;5146522;28;20060;-78
2021/08/06 06:00:16;;;;;;;12.05;9.43;;;15.90;99.90;;;;;;5114773;28;20115;-79
2021/08/06 06:02:43;;;;;;;13.57;9.88;;;16.00;99.90;;;;;;5129290;28;20042;-78
2021/08/06 06:05:10;;;;;;;13.48;9.15;;;16.00;99.90;;;;;;5142355;28;20035;-79
2021/08/06 06:07:48;;;;;;;11.75;9.00;;;16.00;99.90;;;;;;5115825;28;20039;-78
2021/08/06 06:10:20;;;;;;;12.18;9.15;;;16.00;99.90;;;;;;5150437;28;20523;-79
2021/08/06 06:12:48;;;;;;;11.80;9.85;;;16.10;99.90;;;;;;5149780;28;20126;-79
2021/08/06 06:15:15;;;;;;;18.90;9.60;;;16.10;99.90;;;;;;5133409;28;20032;-80
2021/08/06 06:17:42;;;;;;;13.38;9.32;;;16.20;99.90;;;;;;5149599;28;20557;-79
2021/08/06 06:20:10;;;;;;;14.00;8.73;;;16.30;99.90;;;;;;5149453;28;20044;-80
2021/08/06 06:22:37;;;;;;;10.55;8.85;;;16.30;99.90;;;;;;5138103;28;20115;-79
2021/08/06 06:25:04;;;;;;;13.48;9.10;;;16.30;99.90;;;;;;5134393;28;20031;-79
2021/08/06 06:27:31;;;;;;;12.38;8.40;;;16.40;99.90;;;;;;5143578;28;20043;-79
2021/08/06 06:29:58;;;;;;;14.45;8.70;;;16.40;99.90;;;;;;5126123;28;20041;-79
2021/08/06 06:32:25;;;;;;;12.18;9.10;;;16.50;99.90;;;;;;5118129;28;20476;-80
2021/08/06 06:34:52;;;;;;;16.83;10.60;;;16.60;99.90;;;;;;5120397;28;20035;-79
2021/08/06 06:37:19;;;;;;;13.30;10.15;;;16.60;99.90;;;;;;5118454;28;20472;-80
2021/08/06 06:39:45;;;;;;;15.88;10.13;;;16.70;99.90;;;;;;5130946;28;20036;-79
2021/08/06 06:42:13;;;;;;;14.75;10.23;;;16.80;99.90;;;;;;5128922;28;20036;-79
2021/08/06 06:44:39;;;;;;;12.93;9.68;;;16.90;99.90;;;;;;5112244;28;20086;-79
2021/08/06 06:47:06;;;;;;;14.13;10.27;;;17.00;99.90;;;;;;5129675;28;20040;-79
2021/08/06 06:49:33;;;;;;;12.43;9.02;;;17.10;99.90;;;;;;5129210;28;20097;-80
2021/08/06 06:52:00;;;;;;;15.43;9.82;;;17.20;99.90;;;;;;5122790;28;20047;-79
2021/08/06 06:54:27;;;;;;;13.30;9.23;;;17.30;99.90;;;;;;5128710;28;20050;-79
2021/08/06 06:56:53;;;;;;;11.65;8.50;;;17.30;99.90;;;;;;5129791;28;20042;-80
2021/08/06 06:59:20;;;;;;;14.07;8.70;;;17.30;99.90;;;;;;5132350;28;20084;-80
2021/08/06 07:01:47;;;;;;;11.05;8.40;;;17.40;99.90;;;;;;5131445;28;20055;-78
2021/08/06 07:04:14;;;;;;;13.63;9.30;;;17.40;99.90;;;;;;5143272;28;20088;-79
2021/08/06 07:06:40;;;;;;;12.27;8.43;;;17.40;99.90;;;;;;5150048;28;20433;-79
2021/08/06 07:09:08;;;;;;;11.82;8.50;;;17.50;99.90;;;;;;5131513;28;20045;-79
2021/08/06 07:11:36;;;;;;;8.23;6.65;;;17.50;99.90;;;;;;5148893;28;20035;-79
2021/08/06 07:14:03;;;;;;;12.20;7.60;;;17.50;99.90;;;;;;5149552;28;20046;-79
2021/08/06 07:16:30;;;;;;;13.70;8.35;;;17.50;99.90;;;;;;5148675;28;20463;-79
2021/08/06 07:18:57;;;;;;;12.70;7.30;;;17.60;99.90;;;;;;5148304;28;20085;-77
2021/08/06 07:21:24;;;;;;;22.05;9.07;;;17.60;99.90;;;;;;5117578;28;20035;-78
2021/08/06 07:23:52;;;;;;;25.67;9.52;;;17.70;99.90;;;;;;5113692;28;20032;-77
2021/08/06 07:26:19;;;;;;;17.40;8.43;;;17.80;99.90;;;;;;5128915;28;20085;-79
2021/08/06 07:28:46;;;;;;;16.45;8.40;;;17.80;99.90;;;;;;5141810;28;20066;-79
2021/08/06 07:31:13;;;;;;;9.80;7.78;;;17.90;99.90;;;;;;5149267;28;20035;-79
2021/08/06 07:33:40;;;;;;;12.50;7.28;;;17.90;99.90;;;;;;5131532;28;20529;-78
2021/08/06 07:36:07;;;;;;;10.30;6.47;;;17.90;99.90;;;;;;5147883;28;20496;-78
2021/08/06 07:38:34;;;;;;;9.77;5.85;;;17.90;99.90;;;;;;5114353;28;20032;-78
2021/08/06 07:41:01;;;;;;;7.63;5.47;;;17.90;99.90;;;;;;5149026;28;20054;-78
2021/08/06 07:43:28;;;;;;;8.68;5.35;;;17.90;99.90;;;;;;5131363;28;20454;-79
2021/08/06 07:45:56;;;;;;;8.38;6.10;;;17.90;99.90;;;;;;5130731;28;20032;-78
2021/08/06 07:48:23;;;;;;;8.88;5.90;;;17.90;99.90;;;;;;5148387;28;20048;-79
2021/08/06 07:50:49;;;;;;;8.82;5.80;;;18.00;99.90;;;;;;5131472;28;20100;-79
2021/08/06 07:53:16;;;;;;;10.10;6.40;;;18.00;99.90;;;;;;5130593;28;20391;-79
2021/08/06 07:55:43;;;;;;;8.45;6.07;;;18.10;99.90;;;;;;5114434;28;20106;-79
2021/08/06 07:58:10;;;;;;;11.55;6.75;;;18.20;99.90;;;;;;5148584;27;20051;-79
2021/08/06 08:00:37;;;;;;;8.80;6.00;;;18.30;99.90;;;;;;5097465;28;20389;-78
2021/08/06 08:03:04;;;;;;;7.85;5.53;;;18.30;99.90;;;;;;5147310;28;20039;-79
2021/08/06 08:05:30;;;;;;;7.22;5.55;;;18.40;99.90;;;;;;5147926;28;20502;-78
2021/08/06 08:07:57;;;;;;;10.15;5.50;;;18.50;99.90;;;;;;5147185;28;20039;-78
2021/08/06 08:10:24;;;;;;;8.13;4.90;;;18.60;99.90;;;;;;5149651;28;20036;-79
2021/08/06 08:12:51;;;;;;;7.43;4.85;;;18.80;99.90;;;;;;5148702;28;20039;-78
2021/08/06 08:15:18;;;;;;;8.15;5.10;;;18.90;99.90;;;;;;5148986;28;20039;-78
2021/08/06 08:17:45;;;;;;;6.63;5.00;;;19.00;99.90;;;;;;5149573;28;20447;-79
2021/08/06 08:20:12;;;;;;;6.25;4.63;;;19.10;99.90;;;;;;5147134;28;20080;-79
2021/08/06 08:22:40;;;;;;;7.85;5.00;;;19.10;99.90;;;;;;5147750;28;20116;-79
2021/08/06 08:25:08;;;;;;;8.18;4.93;;;19.20;99.90;;;;;;5130155;28;20039;-79
2021/08/06 08:27:35;;;;;;;8.10;4.90;;;19.30;99.90;;;;;;5147454;28;20036;-79
2021/08/06 08:30:04;;;;;;;8.35;4.38;;;19.30;99.90;;;;;;5148171;28;20035;-80
2021/08/06 08:32:31;;;;;;;6.38;4.30;;;19.40;99.90;;;;;;5130475;28;20056;-79
2021/08/06 08:34:58;;;;;;;7.88;4.32;;;19.40;99.90;;;;;;5113647;28;20128;-79
2021/08/06 08:37:24;;;;;;;6.15;4.10;;;19.50;99.90;;;;;;5147015;28;20036;-79
2021/08/06 08:39:51;;;;;;;6.55;4.10;;;19.50;99.90;;;;;;5147437;28;20040;-79
2021/08/06 08:42:21;;;;;;;7.22;3.90;;;19.50;99.90;;;;;;5146017;28;20059;-79
2021/08/06 08:44:49;;;;;;;6.38;4.07;;;19.50;99.90;;;;;;5140872;28;20047;-79
2021/08/06 08:47:24;;;;;;;6.68;3.90;;;19.50;99.90;;;;;;5146913;28;20043;-78
2021/08/06 08:49:52;;;;;;;7.35;3.97;;;19.50;99.90;;;;;;5131297;28;20122;-80
2021/08/06 08:52:20;;;;;;;7.32;3.70;;;19.50;99.90;;;;;;5129747;28;20094;-79
2021/08/06 08:54:47;;;;;;;7.45;3.75;;;19.60;99.90;;;;;;5130526;28;20035;-79
2021/08/06 08:57:22;;;;;;;6.95;4.15;;;19.70;99.90;;;;;;5146512;28;20035;-79
2021/08/06 08:59:50;;;;;;;7.03;4.40;;;19.80;99.90;;;;;;5146697;28;20035;-78
2021/08/06 09:02:17;;;;;;;7.05;4.50;;;19.70;99.90;;;;;;5146333;28;20047;-78
2021/08/06 09:04:46;;;;;;;7.20;4.25;;;19.70;99.90;;;;;;5147034;28;20115;-79
2021/08/06 09:07:31;;;;;;;7.63;4.75;;;19.70;99.90;;;;;;5129777;28;20092;-77
2021/08/06 09:10:31;;;;;;;6.10;4.77;;;19.60;99.90;;;;;;5147301;28;20051;-80
2021/08/06 09:13:00;;;;;;;6.75;4.50;;;19.60;99.90;;;;;;5132319;28;20076;-79
2021/08/06 09:15:53;;;;;;;8.85;5.32;;;19.60;99.90;;;;;;5136131;28;20050;-80
2021/08/06 09:18:36;;;;;;;8.65;6.38;;;19.70;99.90;;;;;;5138862;28;20106;-79
2021/08/06 09:21:07;;;;;;;7.55;6.75;;;19.60;99.90;;;;;;5139302;28;20028;-79
2021/08/06 09:23:58;;;;;;;10.30;6.47;;;19.60;99.90;;;;;;5135654;28;20377;-79
2021/08/06 09:26:28;;;;;;;7.63;6.30;;;19.70;99.90;;;;;;5134020;28;20438;-78
2021/08/06 09:29:18;;;;;;;8.82;5.97;;;19.70;99.90;;;;;;5140852;28;20032;-78
2021/08/06 09:31:59;;;;;;;7.55;5.80;;;19.80;99.90;;;;;;5138990;28;20031;-78
2021/08/06 09:34:34;;;;;;;7.15;5.60;;;19.70;99.90;;;;;;5142088;28;20032;-78
2021/08/06 09:37:12;;;;;;;6.10;5.10;;;19.60;99.90;;;;;;5139377;28;20036;-78
2021/08/06 09:39:51;;;;;;;6.13;5.40;;;19.60;99.90;;;;;;5140721;28;20032;-78
2021/08/06 09:42:24;;;;;;;6.72;5.43;;;19.60;99.90;;;;;;5142253;28;20032;-79
2021/08/06 09:45:14;;;;;;;7.25;5.28;;;19.60;99.90;;;;;;5145645;28;20035;-78
2021/08/06 09:47:46;;;;;;;9.82;5.10;;;19.70;99.90;;;;;;5141274;28;20031;-79
2021/08/06 09:50:15;;;;;;;7.28;5.43;;;19.70;99.90;;;;;;5145111;28;20054;-78
2021/08/06 09:52:48;;;;;;;8.13;5.50;;;19.70;99.90;;;;;;5136870;28;20035;-78
2021/08/06 09:55:34;;;;;;;8.85;6.07;;;19.70;99.90;;;;;;5138686;28;20093;-78
2021/08/06 09:58:05;;;;;;;11.32;6.43;;;19.70;99.90;;;;;;5125450;28;20043;-78
2021/08/06 10:00:32;;;;;;;7.43;6.30;;;19.60;99.90;;;;;;5138998;28;20048;-78
2021/08/06 10:02:59;;;;;;;7.38;6.55;;;19.60;99.90;;;;;;5139428;28;20028;-78
2021/08/06 10:05:28;;;;;;;9.35;6.72;;;19.60;99.90;;;;;;5139531;28;20029;-78
2021/08/06 10:07:57;;;;;;;9.65;7.15;;;19.60;99.90;;;;;;5121678;28;20093;-78
2021/08/06 10:10:29;;;;;;;10.73;7.47;;;19.60;99.90;;;;;;5135582;28;20103;-77
2021/08/06 10:12:57;;;;;;;11.32;8.20;;;19.60;99.90;;;;;;5140268;28;20040;-78
2021/08/06 10:15:25;;;;;;;10.80;9.07;;;19.60;99.90;;;;;;5149586;28;20063;-78
2021/08/06 10:17:53;;;;;;;8.63;7.72;;;19.60;99.90;;;;;;5133295;28;20039;-78
2021/08/06 10:20:23;;;;;;;8.82;7.93;;;19.60;99.90;;;;;;5114315;28;20111;-78
2021/08/06 10:22:51;;;;;;;9.40;8.02;;;19.50;99.90;;;;;;5129320;28;20028;-78
2021/08/06 10:25:20;;;;;;;9.00;8.10;;;19.40;99.90;;;;;;5130213;28;20114;-80
2021/08/06 10:27:48;;;;;;;10.98;7.93;;;19.40;99.90;;;;;;5129363;28;20134;-79
2021/08/06 10:30:23;;;;;;;8.45;7.45;;;19.30;99.90;;;;;;5112618;28;20412;-80
2021/08/06 10:33:28;;;;;;;8.82;8.00;;;19.30;99.90;;;;;;5130491;28;20040;-78
2021/08/06 10:36:05;;;;;;;7.93;6.70;;;19.20;99.90;;;;;;5129353;28;20043;-79
2021/08/06 10:38:43;;;;;;;8.55;7.65;;;19.10;99.90;;;;;;5127426;28;20301;-79
2021/08/06 10:41:17;;;;;;;10.20;8.45;;;19.00;99.90;;;;;;5129059;28;20048;-79
2021/08/06 10:43:57;;;;;;;9.38;8.45;;;19.00;99.90;;;;;;5128954;28;20035;-78
2021/08/06 10:46:25;;;;;;;9.57;8.68;;;18.80;99.90;;;;;;5128457;28;20044;-78
2021/08/06 10:48:54;;;;;;;10.77;9.60;;;18.70;99.90;;;;;;5128994;28;20491;-79
2021/08/06 10:51:23;;;;;;;11.15;8.93;;;18.60;99.90;;;;;;5128396;28;20070;-79
2021/08/06 10:53:56;;;;;;;9.57;8.50;;;18.70;99.90;;;;;;5134349;28;20040;-78
2021/08/06 10:56:25;;;;;;;7.20;6.50;;;18.80;99.90;;;;;;5135902;28;20436;-79
2021/08/06 10:58:54;;;;;;;28.65;7.78;;;19.00;99.90;;;;;;5129042;28;20455;-79
2021/08/06 11:01:27;;;;;;;6.90;5.50;;;19.20;99.90;;;;;;5128040;28;20056;-80
2021/08/06 11:04:17;;;;;;;5.53;4.90;;;19.40;99.90;;;;;;5128762;28;20093;-80
2021/08/06 11:06:50;;;;;;;5.93;3.42;;;19.70;99.90;;;;;;5128331;28;20078;-80
2021/08/06 11:09:24;;;;;;;4.45;3.33;;;20.00;99.90;;;;;;5128919;28;20062;-79
2021/08/06 11:11:58;;;;;;;5.40;3.40;;;20.30;99.90;;;;;;5142246;28;20027;-79
2021/08/06 11:14:28;;;;;;;4.72;2.78;;;20.70;99.90;;;;;;5145399;28;20071;-79
2021/08/06 11:17:21;;;;;;;3.67;2.38;;;20.80;99.90;;;;;;5145171;28;20039;-80
2021/08/06 11:20:14;;;;;;;4.90;2.22;;;20.90;99.90;;;;;;5123047;28;20043;-79
2021/08/06 11:22:46;;;;;;;3.25;2.13;;;20.90;99.90;;;;;;5133578;28;20066;-79
2021/08/06 11:25:23;;;;;;;4.85;2.17;;;20.80;99.90;;;;;;5137844;28;20032;-79
2021/08/06 11:28:02;;;;;;;4.72;1.75;;;20.90;99.90;;;;;;5129572;28;20039;-79
2021/08/06 11:30:35;;;;;;;3.20;1.70;;;21.00;99.90;;;;;;5141427;28;20429;-80
2021/08/06 11:33:03;;;;;;;3.65;1.58;;;21.20;99.90;;;;;;5136863;28;20376;-79
2021/08/06 11:35:43;;;;;;;2.50;1.40;;;21.40;99.90;;;;;;5148724;28;20038;-79
2021/08/06 11:38:22;;;;;;;2.90;1.60;;;21.70;99.90;;;;;;5149744;28;20092;-79
2021/08/06 11:40:54;;;;;;;3.00;1.63;;;22.00;99.90;;;;;;5149794;28;20035;-79
2021/08/06 11:43:24;;;;;;;3.08;1.48;;;22.10;99.90;;;;;;5148577;28;20046;-80
2021/08/06 11:45:53;;;;;;;3.70;1.80;;;22.10;99.90;;;;;;5149287;28;20039;-79
2021/08/06 11:48:20;;;;;;;3.47;1.80;;;22.20;99.90;;;;;;5148284;28;20056;-80
2021/08/06 11:50:49;;;;;;;3.13;1.70;;;22.10;99.90;;;;;;5147703;28;20498;-80
2021/08/06 11:53:23;;;;;;;3.38;1.75;;;22.00;99.90;;;;;;5148230;28;20491;-80
2021/08/06 11:55:52;;;;;;;3.58;1.83;;;21.90;99.90;;;;;;5149014;28;20042;-80
2021/08/06 11:58:33;;;;;;;4.00;1.95;;;21.90;99.90;;;;;;5131490;28;20047;-80
2021/08/06 12:01:01;;;;;;;3.30;2.00;;;21.90;99.90;;;;;;5131639;28;20096;-79
2021/08/06 12:03:27;;;;;;;3.10;2.25;;;22.00;99.90;;;;;;5144161;28;20035;-80
2021/08/06 12:06:00;;;;;;;3.40;2.13;;;22.00;99.90;;;;;;5130411;28;20035;-80
2021/08/06 12:08:32;;;;;;;3.20;2.10;;;21.90;99.90;;;;;;5135356;28;20050;-80
2021/08/06 12:11:05;;;;;;;4.22;2.20;;;21.90;99.90;;;;;;5127358;28;20039;-79
2021/08/06 12:13:40;;;;;;;4.60;2.30;;;22.00;99.90;;;;;;5131605;28;20039;-80
2021/08/06 12:16:10;;;;;;;;;;;22.00;99.90;;;;;;5148970;28;20040;-80
2021/08/06 12:18:50;;;;;;;4.88;2.22;;;22.20;99.90;;;;;;5147392;28;20002;-80
2021/08/06 12:21:25;;;;;;;4.93;2.45;;;22.30;99.90;;;;;;5134683;28;20067;-80
2021/08/06 12:23:58;;;;;;;4.13;2.50;;;22.50;99.90;;;;;;5126793;28;21054;-80
2021/08/06 12:26:34;;;;;;;4.63;2.70;;;22.60;99.90;;;;;;5127134;28;20048;-80
2021/08/06 12:29:22;;;;;;;5.82;2.35;;;22.70;99.90;;;;;;5127409;28;20047;-80
2021/08/06 12:32:01;;;;;;;4.35;2.40;;;22.80;99.90;;;;;;5127713;28;20396;-80
2021/08/06 12:34:34;;;;;;;3.42;2.25;;;22.90;99.90;;;;;;5127001;28;20071;-80
2021/08/06 12:37:11;;;;;;;4.18;2.30;;;22.70;99.90;;;;;;5128368;28;20479;-81
2021/08/06 12:39:46;;;;;;;6.18;2.50;;;22.50;99.90;;;;;;5126679;28;20560;-80
2021/08/06 12:42:21;;;;;;;7.00;2.60;;;22.50;99.90;;;;;;5128938;28;20158;-80
2021/08/06 12:45:16;;;;;;;4.72;2.50;;;22.40;99.90;;;;;;5132814;28;20070;-81
2021/08/06 12:47:50;;;;;;;4.68;2.40;;;22.60;99.90;;;;;;5141203;28;20040;-82
2021/08/06 12:50:30;;;;;;;4.10;2.30;;;22.90;99.90;;;;;;5130270;28;20040;-80
2021/08/06 12:53:11;;;;;;;4.22;2.40;;;22.90;99.90;;;;;;5129841;28;20036;-81